sensor_id;sensor_type;location;lat;lon;timestamp;P1;durP1;ratioP1;P2;durP2;ratioP2
72633;SDS011;60678;47.660;19.280;2023-03-26T00:00:20;1.90;;;1.10;;
72633;SDS011;60678;47.660;19.280;2023-03-26T00:02:47;1.70;;;1.00;;
72633;SDS011;60678;47.660;19.280;2023-03-26T00:05:15;1.70;;;1.00;;
72633;SDS011;60678;47.660;19.280;2023-03-26T00:07:42;2.05;;;1.20;;
72633;SDS011;60678;47.660;19.280;2023-03-26T00:10:09;1.73;;;1.00;;
72633;SDS011;60678;47.660;19.280;2023-03-26T00:12:36;1.80;;;1.05;;
72633;SDS011;60678;47.660;19.280;2023-03-26T00:15:03;1.80;;;1.10;;
72633;SDS011;60678;47.660;19.280;2023-03-26T00:17:30;1.80;;;1.10;;
72633;SDS011;60678;47.660;19.280;2023-03-26T00:19:57;1.90;;;1.15;;
72633;SDS011;60678;47.660;19.280;2023-03-26T00:22:25;1.73;;;1.00;;
72633;SDS011;60678;47.660;19.280;2023-03-26T00:24:53;2.05;;;1.20;;
72633;SDS011;60678;47.660;19.280;2023-03-26T00:27:21;1.87;;;1.00;;
72633;SDS011;60678;47.660;19.280;2023-03-26T00:29:47;1.80;;;1.00;;
72633;SDS011;60678;47.660;19.280;2023-03-26T00:32:14;1.95;;;1.10;;
72633;SDS011;60678;47.660;19.280;2023-03-26T00:34:41;2.03;;;1.20;;
72633;SDS011;60678;47.660;19.280;2023-03-26T00:37:10;1.92;;;1.12;;
72633;SDS011;60678;47.660;19.280;2023-03-26T00:39:39;2.10;;;1.20;;
72633;SDS011;60678;47.660;19.280;2023-03-26T00:42:06;1.73;;;1.00;;
72633;SDS011;60678;47.660;19.280;2023-03-26T00:44:33;2.00;;;1.10;;
72633;SDS011;60678;47.660;19.280;2023-03-26T00:47:00;2.00;;;1.20;;
72633;SDS011;60678;47.660;19.280;2023-03-26T00:49:27;2.15;;;1.30;;
72633;SDS011;60678;47.660;19.280;2023-03-26T00:51:54;2.23;;;1.37;;
72633;SDS011;60678;47.660;19.280;2023-03-26T00:54:21;1.98;;;1.17;;
72633;SDS011;60678;47.660;19.280;2023-03-26T00:56:49;2.30;;;1.40;;
72633;SDS011;60678;47.660;19.280;2023-03-26T00:59:19;1.80;;;1.05;;
72633;SDS011;60678;47.660;19.280;2023-03-26T01:01:46;2.28;;;1.40;;
72633;SDS011;60678;47.660;19.280;2023-03-26T01:04:20;1.80;;;1.10;;
72633;SDS011;60678;47.660;19.280;2023-03-26T01:06:54;1.90;;;1.10;;
72633;SDS011;60678;47.660;19.280;2023-03-26T01:09:24;2.30;;;1.40;;
72633;SDS011;60678;47.660;19.280;2023-03-26T01:11:58;2.10;;;1.25;;
72633;SDS011;60678;47.660;19.280;2023-03-26T01:14:26;2.10;;;1.23;;
72633;SDS011;60678;47.660;19.280;2023-03-26T01:16:54;2.10;;;1.27;;
72633;SDS011;60678;47.660;19.280;2023-03-26T01:19:23;2.00;;;1.10;;
72633;SDS011;60678;47.660;19.280;2023-03-26T01:21:53;2.10;;;1.30;;
72633;SDS011;60678;47.660;19.280;2023-03-26T01:24:21;1.90;;;1.10;;
72633;SDS011;60678;47.660;19.280;2023-03-26T01:27:03;1.90;;;1.15;;
72633;SDS011;60678;47.660;19.280;2023-03-26T01:29:39;1.80;;;1.07;;
72633;SDS011;60678;47.660;19.280;2023-03-26T01:32:12;1.87;;;1.10;;
72633;SDS011;60678;47.660;19.280;2023-03-26T01:34:47;2.17;;;1.50;;
72633;SDS011;60678;47.660;19.280;2023-03-26T01:37:22;2.62;;;1.58;;
72633;SDS011;60678;47.660;19.280;2023-03-26T01:39:56;2.10;;;1.25;;
72633;SDS011;60678;47.660;19.280;2023-03-26T01:42:30;1.90;;;1.10;;
72633;SDS011;60678;47.660;19.280;2023-03-26T01:45:02;1.83;;;1.00;;
72633;SDS011;60678;47.660;19.280;2023-03-26T01:47:33;2.00;;;1.20;;
72633;SDS011;60678;47.660;19.280;2023-03-26T01:50:01;3.22;;;1.90;;
72633;SDS011;60678;47.660;19.280;2023-03-26T01:52:28;1.98;;;1.15;;
72633;SDS011;60678;47.660;19.280;2023-03-26T01:54:57;1.90;;;1.10;;
72633;SDS011;60678;47.660;19.280;2023-03-26T01:57:28;1.77;;;1.05;;
72633;SDS011;60678;47.660;19.280;2023-03-26T02:00:07;2.00;;;1.20;;
72633;SDS011;60678;47.660;19.280;2023-03-26T02:02:43;1.90;;;1.10;;
72633;SDS011;60678;47.660;19.280;2023-03-26T02:05:15;2.03;;;1.20;;
72633;SDS011;60678;47.660;19.280;2023-03-26T02:07:43;1.93;;;1.10;;
72633;SDS011;60678;47.660;19.280;2023-03-26T02:10:17;1.90;;;1.10;;
72633;SDS011;60678;47.660;19.280;2023-03-26T02:12:46;2.10;;;1.27;;
72633;SDS011;60678;47.660;19.280;2023-03-26T02:15:13;1.70;;;1.00;;
72633;SDS011;60678;47.660;19.280;2023-03-26T02:17:40;2.22;;;1.33;;
72633;SDS011;60678;47.660;19.280;2023-03-26T02:20:08;1.90;;;1.10;;
72633;SDS011;60678;47.660;19.280;2023-03-26T02:22:36;1.90;;;1.17;;
72633;SDS011;60678;47.660;19.280;2023-03-26T02:25:05;2.10;;;1.20;;
72633;SDS011;60678;47.660;19.280;2023-03-26T02:27:34;2.08;;;1.20;;
72633;SDS011;60678;47.660;19.280;2023-03-26T02:30:02;2.35;;;1.50;;
72633;SDS011;60678;47.660;19.280;2023-03-26T02:32:29;2.00;;;1.20;;
72633;SDS011;60678;47.660;19.280;2023-03-26T02:34:56;2.00;;;1.15;;
72633;SDS011;60678;47.660;19.280;2023-03-26T02:37:22;2.03;;;1.20;;
72633;SDS011;60678;47.660;19.280;2023-03-26T02:39:50;2.10;;;1.30;;
72633;SDS011;60678;47.660;19.280;2023-03-26T02:42:16;2.00;;;1.10;;
72633;SDS011;60678;47.660;19.280;2023-03-26T02:44:44;2.20;;;1.40;;
72633;SDS011;60678;47.660;19.280;2023-03-26T02:47:11;1.90;;;1.10;;
72633;SDS011;60678;47.660;19.280;2023-03-26T02:49:38;2.00;;;1.20;;
72633;SDS011;60678;47.660;19.280;2023-03-26T02:52:04;1.80;;;1.08;;
72633;SDS011;60678;47.660;19.280;2023-03-26T02:54:31;1.90;;;1.12;;
72633;SDS011;60678;47.660;19.280;2023-03-26T02:56:59;1.90;;;1.10;;
72633;SDS011;60678;47.660;19.280;2023-03-26T02:59:26;2.00;;;1.20;;
72633;SDS011;60678;47.660;19.280;2023-03-26T03:01:54;1.92;;;1.12;;
72633;SDS011;60678;47.660;19.280;2023-03-26T03:04:20;1.70;;;1.00;;
72633;SDS011;60678;47.660;19.280;2023-03-26T03:06:47;2.20;;;1.35;;
72633;SDS011;60678;47.660;19.280;2023-03-26T03:09:17;1.73;;;1.00;;
72633;SDS011;60678;47.660;19.280;2023-03-26T03:11:44;2.00;;;1.20;;
72633;SDS011;60678;47.660;19.280;2023-03-26T03:14:10;2.08;;;1.30;;
72633;SDS011;60678;47.660;19.280;2023-03-26T03:16:37;1.90;;;1.10;;
72633;SDS011;60678;47.660;19.280;2023-03-26T03:19:05;1.90;;;1.10;;
72633;SDS011;60678;47.660;19.280;2023-03-26T03:21:32;1.80;;;1.10;;
72633;SDS011;60678;47.660;19.280;2023-03-26T03:23:59;2.20;;;1.40;;
72633;SDS011;60678;47.660;19.280;2023-03-26T03:26:26;2.00;;;1.20;;
72633;SDS011;60678;47.660;19.280;2023-03-26T03:28:54;2.00;;;1.20;;
72633;SDS011;60678;47.660;19.280;2023-03-26T03:31:22;2.00;;;1.20;;
72633;SDS011;60678;47.660;19.280;2023-03-26T03:33:49;2.00;;;1.17;;
72633;SDS011;60678;47.660;19.280;2023-03-26T03:36:18;2.00;;;1.20;;
72633;SDS011;60678;47.660;19.280;2023-03-26T03:38:47;2.10;;;1.30;;
72633;SDS011;60678;47.660;19.280;2023-03-26T03:41:14;1.80;;;1.10;;
72633;SDS011;60678;47.660;19.280;2023-03-26T03:43:42;2.20;;;1.30;;
72633;SDS011;60678;47.660;19.280;2023-03-26T03:46:10;1.83;;;1.10;;
72633;SDS011;60678;47.660;19.280;2023-03-26T03:48:36;2.10;;;1.20;;
72633;SDS011;60678;47.660;19.280;2023-03-26T03:51:03;2.08;;;1.20;;
72633;SDS011;60678;47.660;19.280;2023-03-26T03:53:32;2.10;;;1.20;;
72633;SDS011;60678;47.660;19.280;2023-03-26T03:56:01;2.30;;;1.40;;
72633;SDS011;60678;47.660;19.280;2023-03-26T03:58:28;2.10;;;1.23;;
72633;SDS011;60678;47.660;19.280;2023-03-26T04:00:55;2.97;;;2.35;;
72633;SDS011;60678;47.660;19.280;2023-03-26T04:03:25;2.30;;;1.40;;
72633;SDS011;60678;47.660;19.280;2023-03-26T04:05:52;2.20;;;1.33;;
72633;SDS011;60678;47.660;19.280;2023-03-26T04:08:19;2.40;;;1.50;;
72633;SDS011;60678;47.660;19.280;2023-03-26T04:10:48;2.10;;;1.27;;
72633;SDS011;60678;47.660;19.280;2023-03-26T04:13:15;2.03;;;1.20;;
72633;SDS011;60678;47.660;19.280;2023-03-26T04:15:42;2.20;;;1.40;;
72633;SDS011;60678;47.660;19.280;2023-03-26T04:18:09;2.08;;;1.25;;
72633;SDS011;60678;47.660;19.280;2023-03-26T04:20:36;2.50;;;1.60;;
72633;SDS011;60678;47.660;19.280;2023-03-26T04:23:05;2.20;;;1.30;;
72633;SDS011;60678;47.660;19.280;2023-03-26T04:25:38;2.22;;;1.30;;
72633;SDS011;60678;47.660;19.280;2023-03-26T04:28:06;2.20;;;1.30;;
72633;SDS011;60678;47.660;19.280;2023-03-26T04:30:35;2.22;;;1.40;;
72633;SDS011;60678;47.660;19.280;2023-03-26T04:33:08;2.40;;;1.50;;
72633;SDS011;60678;47.660;19.280;2023-03-26T04:35:39;2.30;;;1.40;;
72633;SDS011;60678;47.660;19.280;2023-03-26T04:38:08;2.22;;;1.33;;
72633;SDS011;60678;47.660;19.280;2023-03-26T04:40:36;2.40;;;1.55;;
72633;SDS011;60678;47.660;19.280;2023-03-26T04:43:04;2.37;;;1.42;;
72633;SDS011;60678;47.660;19.280;2023-03-26T04:45:32;2.47;;;1.50;;
72633;SDS011;60678;47.660;19.280;2023-03-26T04:47:58;2.20;;;1.30;;
72633;SDS011;60678;47.660;19.280;2023-03-26T04:50:26;2.25;;;1.40;;
72633;SDS011;60678;47.660;19.280;2023-03-26T04:52:53;2.30;;;1.40;;
72633;SDS011;60678;47.660;19.280;2023-03-26T04:55:22;2.28;;;1.37;;
72633;SDS011;60678;47.660;19.280;2023-03-26T04:57:52;2.60;;;1.67;;
72633;SDS011;60678;47.660;19.280;2023-03-26T05:00:21;2.30;;;1.40;;
72633;SDS011;60678;47.660;19.280;2023-03-26T05:02:50;2.20;;;1.30;;
72633;SDS011;60678;47.660;19.280;2023-03-26T05:05:20;2.30;;;1.42;;
72633;SDS011;60678;47.660;19.280;2023-03-26T05:07:47;2.30;;;1.40;;
72633;SDS011;60678;47.660;19.280;2023-03-26T05:10:14;2.40;;;1.50;;
72633;SDS011;60678;47.660;19.280;2023-03-26T05:12:41;2.20;;;1.37;;
72633;SDS011;60678;47.660;19.280;2023-03-26T05:15:09;2.35;;;1.45;;
72633;SDS011;60678;47.660;19.280;2023-03-26T05:17:37;2.37;;;1.42;;
72633;SDS011;60678;47.660;19.280;2023-03-26T05:20:09;2.55;;;1.83;;
72633;SDS011;60678;47.660;19.280;2023-03-26T05:22:41;2.37;;;1.40;;
72633;SDS011;60678;47.660;19.280;2023-03-26T05:25:08;2.30;;;1.40;;
72633;SDS011;60678;47.660;19.280;2023-03-26T05:27:35;2.10;;;1.30;;
72633;SDS011;60678;47.660;19.280;2023-03-26T05:30:02;2.25;;;1.30;;
72633;SDS011;60678;47.660;19.280;2023-03-26T05:32:30;2.25;;;1.40;;
72633;SDS011;60678;47.660;19.280;2023-03-26T05:34:57;2.20;;;1.30;;
72633;SDS011;60678;47.660;19.280;2023-03-26T05:37:25;2.13;;;1.30;;
72633;SDS011;60678;47.660;19.280;2023-03-26T05:39:55;2.20;;;1.30;;
72633;SDS011;60678;47.660;19.280;2023-03-26T05:42:22;2.00;;;1.20;;
72633;SDS011;60678;47.660;19.280;2023-03-26T05:44:49;2.00;;;1.12;;
72633;SDS011;60678;47.660;19.280;2023-03-26T05:47:16;2.17;;;1.37;;
72633;SDS011;60678;47.660;19.280;2023-03-26T05:49:42;2.07;;;1.20;;
72633;SDS011;60678;47.660;19.280;2023-03-26T05:52:10;2.00;;;1.20;;
72633;SDS011;60678;47.660;19.280;2023-03-26T05:54:40;2.30;;;1.50;;
72633;SDS011;60678;47.660;19.280;2023-03-26T05:57:07;2.95;;;2.15;;
72633;SDS011;60678;47.660;19.280;2023-03-26T05:59:34;1.95;;;1.15;;
72633;SDS011;60678;47.660;19.280;2023-03-26T06:02:01;1.87;;;1.10;;
72633;SDS011;60678;47.660;19.280;2023-03-26T06:04:27;2.03;;;1.20;;
72633;SDS011;60678;47.660;19.280;2023-03-26T06:06:55;1.80;;;1.10;;
72633;SDS011;60678;47.660;19.280;2023-03-26T06:09:22;2.05;;;1.20;;
72633;SDS011;60678;47.660;19.280;2023-03-26T06:11:50;1.80;;;1.10;;
72633;SDS011;60678;47.660;19.280;2023-03-26T06:14:17;1.63;;;0.90;;
72633;SDS011;60678;47.660;19.280;2023-03-26T06:16:44;1.80;;;1.10;;
72633;SDS011;60678;47.660;19.280;2023-03-26T06:19:10;1.70;;;1.00;;
72633;SDS011;60678;47.660;19.280;2023-03-26T06:21:37;1.80;;;1.10;;
72633;SDS011;60678;47.660;19.280;2023-03-26T06:24:04;1.90;;;1.10;;
72633;SDS011;60678;47.660;19.280;2023-03-26T06:26:31;1.77;;;1.00;;
72633;SDS011;60678;47.660;19.280;2023-03-26T06:28:59;2.00;;;1.20;;
72633;SDS011;60678;47.660;19.280;2023-03-26T06:31:26;1.80;;;1.00;;
72633;SDS011;60678;47.660;19.280;2023-03-26T06:33:53;1.70;;;1.00;;
72633;SDS011;60678;47.660;19.280;2023-03-26T06:36:20;1.90;;;1.10;;
72633;SDS011;60678;47.660;19.280;2023-03-26T06:38:46;1.80;;;1.03;;
72633;SDS011;60678;47.660;19.280;2023-03-26T06:41:13;1.70;;;1.00;;
72633;SDS011;60678;47.660;19.280;2023-03-26T06:43:40;1.83;;;1.00;;
72633;SDS011;60678;47.660;19.280;2023-03-26T06:46:08;1.77;;;1.00;;
72633;SDS011;60678;47.660;19.280;2023-03-26T06:48:35;1.70;;;0.98;;
72633;SDS011;60678;47.660;19.280;2023-03-26T06:51:02;1.80;;;1.00;;
72633;SDS011;60678;47.660;19.280;2023-03-26T06:53:29;1.60;;;0.90;;
72633;SDS011;60678;47.660;19.280;2023-03-26T06:55:56;1.80;;;1.10;;
72633;SDS011;60678;47.660;19.280;2023-03-26T06:58:23;1.65;;;0.90;;
72633;SDS011;60678;47.660;19.280;2023-03-26T07:00:51;1.75;;;1.05;;
72633;SDS011;60678;47.660;19.280;2023-03-26T07:03:19;1.50;;;0.80;;
72633;SDS011;60678;47.660;19.280;2023-03-26T07:05:47;1.42;;;0.80;;
72633;SDS011;60678;47.660;19.280;2023-03-26T07:08:14;1.50;;;0.80;;
72633;SDS011;60678;47.660;19.280;2023-03-26T07:10:41;1.60;;;0.90;;
72633;SDS011;60678;47.660;19.280;2023-03-26T07:13:07;1.80;;;1.00;;
72633;SDS011;60678;47.660;19.280;2023-03-26T07:15:34;1.60;;;0.90;;
72633;SDS011;60678;47.660;19.280;2023-03-26T07:18:01;1.62;;;0.90;;
72633;SDS011;60678;47.660;19.280;2023-03-26T07:20:30;1.50;;;0.80;;
72633;SDS011;60678;47.660;19.280;2023-03-26T07:22:57;1.40;;;0.70;;
72633;SDS011;60678;47.660;19.280;2023-03-26T07:25:24;1.60;;;0.90;;
72633;SDS011;60678;47.660;19.280;2023-03-26T07:27:54;1.40;;;0.70;;
72633;SDS011;60678;47.660;19.280;2023-03-26T07:30:25;1.35;;;0.70;;
72633;SDS011;60678;47.660;19.280;2023-03-26T07:32:58;1.48;;;0.80;;
72633;SDS011;60678;47.660;19.280;2023-03-26T07:35:28;1.50;;;0.80;;
72633;SDS011;60678;47.660;19.280;2023-03-26T07:38:01;1.50;;;0.80;;
72633;SDS011;60678;47.660;19.280;2023-03-26T07:40:51;1.43;;;0.80;;
72633;SDS011;60678;47.660;19.280;2023-03-26T07:43:24;1.30;;;0.70;;
72633;SDS011;60678;47.660;19.280;2023-03-26T07:45:57;1.35;;;0.70;;
72633;SDS011;60678;47.660;19.280;2023-03-26T07:48:25;1.30;;;0.70;;
72633;SDS011;60678;47.660;19.280;2023-03-26T07:50:55;1.48;;;0.80;;
72633;SDS011;60678;47.660;19.280;2023-03-26T07:53:24;1.40;;;0.80;;
72633;SDS011;60678;47.660;19.280;2023-03-26T07:55:52;1.40;;;0.70;;
72633;SDS011;60678;47.660;19.280;2023-03-26T07:58:28;1.30;;;0.70;;
72633;SDS011;60678;47.660;19.280;2023-03-26T08:01:05;1.30;;;0.70;;
72633;SDS011;60678;47.660;19.280;2023-03-26T08:03:44;1.50;;;0.85;;
72633;SDS011;60678;47.660;19.280;2023-03-26T08:06:31;1.20;;;0.60;;
72633;SDS011;60678;47.660;19.280;2023-03-26T08:09:02;1.30;;;0.70;;
72633;SDS011;60678;47.660;19.280;2023-03-26T08:11:37;1.50;;;0.80;;
72633;SDS011;60678;47.660;19.280;2023-03-26T08:14:14;1.30;;;0.70;;
72633;SDS011;60678;47.660;19.280;2023-03-26T08:16:48;1.30;;;0.65;;
72633;SDS011;60678;47.660;19.280;2023-03-26T08:19:29;1.57;;;0.87;;
72633;SDS011;60678;47.660;19.280;2023-03-26T08:22:05;1.10;;;0.50;;
72633;SDS011;60678;47.660;19.280;2023-03-26T08:24:38;1.30;;;0.65;;
72633;SDS011;60678;47.660;19.280;2023-03-26T08:27:10;1.20;;;0.60;;
72633;SDS011;60678;47.660;19.280;2023-03-26T08:29:44;1.30;;;0.70;;
72633;SDS011;60678;47.660;19.280;2023-03-26T08:32:16;1.37;;;0.70;;
72633;SDS011;60678;47.660;19.280;2023-03-26T08:34:44;1.20;;;0.60;;
72633;SDS011;60678;47.660;19.280;2023-03-26T08:37:12;1.60;;;0.77;;
72633;SDS011;60678;47.660;19.280;2023-03-26T08:39:39;1.20;;;0.60;;
72633;SDS011;60678;47.660;19.280;2023-03-26T08:42:18;1.10;;;0.50;;
72633;SDS011;60678;47.660;19.280;2023-03-26T08:45:22;1.20;;;0.60;;
72633;SDS011;60678;47.660;19.280;2023-03-26T08:48:04;1.30;;;0.68;;
72633;SDS011;60678;47.660;19.280;2023-03-26T08:51:05;1.20;;;0.60;;
72633;SDS011;60678;47.660;19.280;2023-03-26T08:56:52;1.10;;;0.50;;
72633;SDS011;60678;47.660;19.280;2023-03-26T08:59:43;1.13;;;0.60;;
72633;SDS011;60678;47.660;19.280;2023-03-26T09:02:25;1.20;;;0.60;;
72633;SDS011;60678;47.660;19.280;2023-03-26T09:05:34;1.20;;;0.60;;
72633;SDS011;60678;47.660;19.280;2023-03-26T09:08:27;3.92;;;1.00;;
72633;SDS011;60678;47.660;19.280;2023-03-26T09:14:48;1.30;;;0.60;;
72633;SDS011;60678;47.660;19.280;2023-03-26T09:21:06;1.40;;;0.70;;
72633;SDS011;60678;47.660;19.280;2023-03-26T09:26:44;1.25;;;0.60;;
72633;SDS011;60678;47.660;19.280;2023-03-26T09:35:16;1.20;;;0.60;;
72633;SDS011;60678;47.660;19.280;2023-03-26T09:37:57;1.10;;;0.50;;
72633;SDS011;60678;47.660;19.280;2023-03-26T09:40:27;1.30;;;0.70;;
72633;SDS011;60678;47.660;19.280;2023-03-26T09:43:06;1.10;;;0.60;;
72633;SDS011;60678;47.660;19.280;2023-03-26T09:45:52;1.20;;;0.50;;
72633;SDS011;60678;47.660;19.280;2023-03-26T09:48:39;1.33;;;0.62;;
72633;SDS011;60678;47.660;19.280;2023-03-26T09:51:35;1.10;;;0.50;;
72633;SDS011;60678;47.660;19.280;2023-03-26T09:54:14;1.20;;;0.60;;
72633;SDS011;60678;47.660;19.280;2023-03-26T09:57:00;1.20;;;0.60;;
72633;SDS011;60678;47.660;19.280;2023-03-26T09:59:34;1.17;;;0.57;;
72633;SDS011;60678;47.660;19.280;2023-03-26T10:02:14;1.37;;;0.70;;
72633;SDS011;60678;47.660;19.280;2023-03-26T10:05:03;1.10;;;0.50;;
72633;SDS011;60678;47.660;19.280;2023-03-26T10:07:48;1.20;;;0.60;;
72633;SDS011;60678;47.660;19.280;2023-03-26T10:10:24;1.20;;;0.60;;
72633;SDS011;60678;47.660;19.280;2023-03-26T10:12:55;1.33;;;0.68;;
72633;SDS011;60678;47.660;19.280;2023-03-26T10:15:27;1.20;;;0.60;;
72633;SDS011;60678;47.660;19.280;2023-03-26T10:18:01;1.15;;;0.50;;
72633;SDS011;60678;47.660;19.280;2023-03-26T10:20:34;1.20;;;0.60;;
72633;SDS011;60678;47.660;19.280;2023-03-26T10:23:16;1.10;;;0.60;;
72633;SDS011;60678;47.660;19.280;2023-03-26T10:26:02;1.10;;;0.50;;
72633;SDS011;60678;47.660;19.280;2023-03-26T10:28:39;1.27;;;0.60;;
72633;SDS011;60678;47.660;19.280;2023-03-26T10:31:23;1.20;;;0.60;;
72633;SDS011;60678;47.660;19.280;2023-03-26T10:33:55;1.10;;;0.50;;
72633;SDS011;60678;47.660;19.280;2023-03-26T10:36:27;1.65;;;1.00;;
72633;SDS011;60678;47.660;19.280;2023-03-26T10:42:08;1.20;;;0.60;;
72633;SDS011;60678;47.660;19.280;2023-03-26T10:44:54;2.67;;;0.93;;
72633;SDS011;60678;47.660;19.280;2023-03-26T10:47:40;1.20;;;0.60;;
72633;SDS011;60678;47.660;19.280;2023-03-26T10:50:22;1.30;;;0.62;;
72633;SDS011;60678;47.660;19.280;2023-03-26T10:52:53;1.20;;;0.60;;
72633;SDS011;60678;47.660;19.280;2023-03-26T10:55:25;1.10;;;0.60;;
72633;SDS011;60678;47.660;19.280;2023-03-26T10:57:56;1.20;;;0.50;;
72633;SDS011;60678;47.660;19.280;2023-03-26T11:00:25;1.40;;;0.70;;
72633;SDS011;60678;47.660;19.280;2023-03-26T11:02:58;1.30;;;0.60;;
72633;SDS011;60678;47.660;19.280;2023-03-26T11:05:45;1.10;;;0.50;;
72633;SDS011;60678;47.660;19.280;2023-03-26T11:08:16;1.27;;;0.60;;
72633;SDS011;60678;47.660;19.280;2023-03-26T11:10:48;1.17;;;0.57;;
72633;SDS011;60678;47.660;19.280;2023-03-26T11:13:22;1.20;;;0.50;;
72633;SDS011;60678;47.660;19.280;2023-03-26T11:15:55;1.20;;;0.60;;
72633;SDS011;60678;47.660;19.280;2023-03-26T11:18:27;1.10;;;0.50;;
72633;SDS011;60678;47.660;19.280;2023-03-26T11:21:00;1.10;;;0.50;;
72633;SDS011;60678;47.660;19.280;2023-03-26T11:23:34;1.12;;;0.50;;
72633;SDS011;60678;47.660;19.280;2023-03-26T11:26:09;1.10;;;0.50;;
72633;SDS011;60678;47.660;19.280;2023-03-26T11:28:56;1.10;;;0.50;;
72633;SDS011;60678;47.660;19.280;2023-03-26T11:31:45;1.12;;;0.50;;
72633;SDS011;60678;47.660;19.280;2023-03-26T11:34:17;1.10;;;0.50;;
72633;SDS011;60678;47.660;19.280;2023-03-26T11:36:47;1.05;;;0.50;;
72633;SDS011;60678;47.660;19.280;2023-03-26T11:39:18;1.20;;;0.60;;
72633;SDS011;60678;47.660;19.280;2023-03-26T11:41:46;1.20;;;0.60;;
72633;SDS011;60678;47.660;19.280;2023-03-26T11:44:19;1.10;;;0.45;;
72633;SDS011;60678;47.660;19.280;2023-03-26T11:46:48;1.30;;;0.62;;
72633;SDS011;60678;47.660;19.280;2023-03-26T11:49:17;1.27;;;0.60;;
72633;SDS011;60678;47.660;19.280;2023-03-26T11:51:46;1.20;;;0.60;;
72633;SDS011;60678;47.660;19.280;2023-03-26T11:54:13;3.03;;;1.67;;
72633;SDS011;60678;47.660;19.280;2023-03-26T11:56:41;1.20;;;0.60;;
72633;SDS011;60678;47.660;19.280;2023-03-26T11:59:12;1.10;;;0.55;;
72633;SDS011;60678;47.660;19.280;2023-03-26T12:01:42;1.00;;;0.40;;
72633;SDS011;60678;47.660;19.280;2023-03-26T12:04:14;1.77;;;1.00;;
72633;SDS011;60678;47.660;19.280;2023-03-26T12:06:49;1.00;;;0.40;;
72633;SDS011;60678;47.660;19.280;2023-03-26T12:09:20;1.20;;;0.57;;
72633;SDS011;60678;47.660;19.280;2023-03-26T12:11:47;1.00;;;0.40;;
72633;SDS011;60678;47.660;19.280;2023-03-26T12:14:16;1.15;;;0.55;;
72633;SDS011;60678;47.660;19.280;2023-03-26T12:16:58;1.03;;;0.50;;
72633;SDS011;60678;47.660;19.280;2023-03-26T12:19:26;1.17;;;0.50;;
72633;SDS011;60678;47.660;19.280;2023-03-26T12:22:00;1.33;;;0.60;;
72633;SDS011;60678;47.660;19.280;2023-03-26T12:24:27;1.10;;;0.50;;
72633;SDS011;60678;47.660;19.280;2023-03-26T12:26:58;1.00;;;0.40;;
72633;SDS011;60678;47.660;19.280;2023-03-26T12:29:27;1.20;;;0.60;;
72633;SDS011;60678;47.660;19.280;2023-03-26T12:32:03;1.00;;;0.40;;
72633;SDS011;60678;47.660;19.280;2023-03-26T12:34:32;1.10;;;0.50;;
72633;SDS011;60678;47.660;19.280;2023-03-26T12:37:00;1.20;;;0.60;;
72633;SDS011;60678;47.660;19.280;2023-03-26T12:39:28;1.15;;;0.55;;
72633;SDS011;60678;47.660;19.280;2023-03-26T12:41:58;1.15;;;0.50;;
72633;SDS011;60678;47.660;19.280;2023-03-26T12:44:27;1.10;;;0.50;;
72633;SDS011;60678;47.660;19.280;2023-03-26T12:47:07;1.02;;;0.50;;
72633;SDS011;60678;47.660;19.280;2023-03-26T12:49:36;1.15;;;0.50;;
72633;SDS011;60678;47.660;19.280;2023-03-26T12:55:19;0.88;;;0.30;;
72633;SDS011;60678;47.660;19.280;2023-03-26T12:57:57;0.98;;;0.40;;
72633;SDS011;60678;47.660;19.280;2023-03-26T13:00:39;0.93;;;0.40;;
72633;SDS011;60678;47.660;19.280;2023-03-26T13:03:18;1.08;;;0.50;;
72633;SDS011;60678;47.660;19.280;2023-03-26T13:05:55;1.00;;;0.45;;
72633;SDS011;60678;47.660;19.280;2023-03-26T13:11:19;1.30;;;0.60;;
72633;SDS011;60678;47.660;19.280;2023-03-26T13:14:08;2.97;;;0.98;;
72633;SDS011;60678;47.660;19.280;2023-03-26T13:16:51;0.90;;;0.40;;
72633;SDS011;60678;47.660;19.280;2023-03-26T13:19:23;1.10;;;0.50;;
72633;SDS011;60678;47.660;19.280;2023-03-26T13:21:59;1.12;;;0.50;;
72633;SDS011;60678;47.660;19.280;2023-03-26T13:24:39;1.00;;;0.40;;
72633;SDS011;60678;47.660;19.280;2023-03-26T13:27:15;0.90;;;0.40;;
72633;SDS011;60678;47.660;19.280;2023-03-26T13:29:50;1.00;;;0.40;;
72633;SDS011;60678;47.660;19.280;2023-03-26T13:32:23;0.90;;;0.40;;
72633;SDS011;60678;47.660;19.280;2023-03-26T13:35:00;2.40;;;0.80;;
72633;SDS011;60678;47.660;19.280;2023-03-26T13:37:35;1.00;;;0.40;;
72633;SDS011;60678;47.660;19.280;2023-03-26T13:40:12;1.00;;;0.40;;
72633;SDS011;60678;47.660;19.280;2023-03-26T13:42:45;1.00;;;0.47;;
72633;SDS011;60678;47.660;19.280;2023-03-26T13:45:19;1.00;;;0.40;;
72633;SDS011;60678;47.660;19.280;2023-03-26T13:47:53;1.05;;;0.45;;
72633;SDS011;60678;47.660;19.280;2023-03-26T13:50:22;0.90;;;0.32;;
72633;SDS011;60678;47.660;19.280;2023-03-26T13:52:54;0.90;;;0.40;;
72633;SDS011;60678;47.660;19.280;2023-03-26T13:55:24;1.00;;;0.45;;
72633;SDS011;60678;47.660;19.280;2023-03-26T13:57:55;1.00;;;0.40;;
72633;SDS011;60678;47.660;19.280;2023-03-26T14:00:27;1.10;;;0.50;;
72633;SDS011;60678;47.660;19.280;2023-03-26T14:03:12;1.00;;;0.40;;
72633;SDS011;60678;47.660;19.280;2023-03-26T14:05:44;0.93;;;0.40;;
72633;SDS011;60678;47.660;19.280;2023-03-26T14:08:15;1.15;;;0.50;;
72633;SDS011;60678;47.660;19.280;2023-03-26T14:10:46;1.10;;;0.50;;
72633;SDS011;60678;47.660;19.280;2023-03-26T14:13:17;0.85;;;0.40;;
72633;SDS011;60678;47.660;19.280;2023-03-26T14:15:45;1.10;;;0.55;;
72633;SDS011;60678;47.660;19.280;2023-03-26T14:18:18;0.90;;;0.40;;
72633;SDS011;60678;47.660;19.280;2023-03-26T14:21:04;0.90;;;0.40;;
72633;SDS011;60678;47.660;19.280;2023-03-26T14:26:47;0.90;;;0.40;;
72633;SDS011;60678;47.660;19.280;2023-03-26T14:29:43;1.10;;;0.50;;
72633;SDS011;60678;47.660;19.280;2023-03-26T14:32:19;1.10;;;0.50;;
72633;SDS011;60678;47.660;19.280;2023-03-26T14:35:02;1.10;;;0.50;;
72633;SDS011;60678;47.660;19.280;2023-03-26T14:37:44;1.23;;;0.60;;
72633;SDS011;60678;47.660;19.280;2023-03-26T14:40:25;1.00;;;0.40;;
72633;SDS011;60678;47.660;19.280;2023-03-26T14:42:56;1.25;;;0.52;;
72633;SDS011;60678;47.660;19.280;2023-03-26T14:45:34;0.95;;;0.40;;
72633;SDS011;60678;47.660;19.280;2023-03-26T14:48:25;4.15;;;0.85;;
72633;SDS011;60678;47.660;19.280;2023-03-26T14:51:27;1.05;;;0.50;;
72633;SDS011;60678;47.660;19.280;2023-03-26T14:54:08;1.10;;;0.47;;
72633;SDS011;60678;47.660;19.280;2023-03-26T15:03:12;1.00;;;0.40;;
72633;SDS011;60678;47.660;19.280;2023-03-26T15:06:10;0.95;;;0.40;;
72633;SDS011;60678;47.660;19.280;2023-03-26T15:11:52;0.90;;;0.40;;
72633;SDS011;60678;47.660;19.280;2023-03-26T15:14:35;0.90;;;0.40;;
72633;SDS011;60678;47.660;19.280;2023-03-26T15:17:35;3.30;;;0.50;;
72633;SDS011;60678;47.660;19.280;2023-03-26T15:20:21;0.93;;;0.40;;
72633;SDS011;60678;47.660;19.280;2023-03-26T15:26:26;0.98;;;0.40;;
72633;SDS011;60678;47.660;19.280;2023-03-26T15:29:28;0.90;;;0.40;;
72633;SDS011;60678;47.660;19.280;2023-03-26T15:32:17;1.00;;;0.40;;
72633;SDS011;60678;47.660;19.280;2023-03-26T15:38:09;1.00;;;0.40;;
72633;SDS011;60678;47.660;19.280;2023-03-26T15:40:59;1.00;;;0.50;;
72633;SDS011;60678;47.660;19.280;2023-03-26T15:43:46;0.90;;;0.40;;
72633;SDS011;60678;47.660;19.280;2023-03-26T15:46:30;1.35;;;0.70;;
72633;SDS011;60678;47.660;19.280;2023-03-26T15:49:00;1.92;;;1.33;;
72633;SDS011;60678;47.660;19.280;2023-03-26T15:51:41;0.90;;;0.30;;